Time;durP1;ratioP1;P1;durP2;ratioP2;P2;SDS_P1;SDS_P2;PMS_P1;PMS_P2;Temp;Humidity;BMP_temperature;BMP_pressure;BME280_temperature;BME280_humidity;BME280_pressure;Samples;Min_cycle;Max_cycle;Signal;HPM_P1;HPM_P2
2021/09/09 00:00:00;;;;;;;30.88;20.58;;;10.80;99.90;;;;;;5085310;28;20028;-75
2021/09/09 00:02:26;;;;;;;31.30;19.73;;;10.70;99.90;;;;;;5093031;28;20020;-76
2021/09/09 00:04:52;;;;;;;35.17;22.95;;;10.70;99.90;;;;;;5084067;28;20470;-75
2021/09/09 00:07:19;;;;;;;28.65;19.48;;;10.70;99.90;;;;;;5091724;28;20024;-76
2021/09/09 00:09:45;;;;;;;29.30;19.15;;;10.70;99.90;;;;;;5090233;28;20023;-75
2021/09/09 00:12:10;;;;;;;22.83;16.08;;;10.70;99.90;;;;;;5091492;28;20074;-76
2021/09/09 00:14:36;;;;;;;25.83;15.63;;;10.70;99.90;;;;;;5091420;28;20020;-75
2021/09/09 00:17:02;;;;;;;23.58;15.07;;;10.60;99.90;;;;;;5092765;28;20060;-75
2021/09/09 00:19:28;;;;;;;25.75;15.85;;;10.60;99.90;;;;;;5090958;28;20024;-75
2021/09/09 00:21:53;;;;;;;21.17;15.13;;;10.60;99.90;;;;;;5091453;28;20020;-76
2021/09/09 00:24:19;;;;;;;22.83;15.57;;;10.60;99.90;;;;;;5082409;28;20043;-76
2021/09/09 00:26:44;;;;;;;26.95;15.57;;;10.60;99.90;;;;;;5097468;28;20039;-75
2021/09/09 00:29:10;;;;;;;19.70;15.23;;;10.60;99.90;;;;;;5089032;28;20032;-75
2021/09/09 00:31:36;;;;;;;21.50;14.95;;;10.50;99.90;;;;;;5095440;28;20024;-78
2021/09/09 00:34:01;;;;;;;22.77;15.75;;;10.50;99.90;;;;;;5095613;28;20058;-79
2021/09/09 00:36:27;;;;;;;20.30;14.07;;;10.50;99.90;;;;;;5095568;28;20077;-78
2021/09/09 00:38:53;;;;;;;22.92;14.68;;;10.50;99.90;;;;;;5090955;28;20016;-78
2021/09/09 00:41:19;;;;;;;23.30;15.48;;;10.40;99.90;;;;;;5096582;28;20028;-78
2021/09/09 00:43:44;;;;;;;21.00;15.43;;;10.30;99.90;;;;;;5087903;28;20028;-79
2021/09/09 00:46:10;;;;;;;23.88;15.48;;;10.20;99.90;;;;;;5091625;28;20523;-78
2021/09/09 00:48:36;;;;;;;25.45;17.90;;;10.20;99.90;;;;;;5096840;28;20032;-79
2021/09/09 00:51:02;;;;;;;22.95;15.75;;;10.10;99.90;;;;;;5101238;28;20035;-78
2021/09/09 00:53:27;;;;;;;22.63;14.48;;;10.10;99.90;;;;;;5107426;28;20028;-78
2021/09/09 00:55:53;;;;;;;21.75;14.23;;;10.10;99.90;;;;;;5090045;28;20034;-78
2021/09/09 00:58:20;;;;;;;24.27;14.18;;;10.10;99.90;;;;;;5094461;28;20012;-79
2021/09/09 01:00:45;;;;;;;20.90;13.73;;;10.10;99.90;;;;;;5093844;28;20040;-78
2021/09/09 01:03:11;;;;;;;19.45;14.10;;;10.00;99.90;;;;;;5092445;28;20074;-78
2021/09/09 01:05:38;;;;;;;20.27;13.55;;;10.00;99.90;;;;;;5081693;28;20073;-78
2021/09/09 01:08:04;;;;;;;20.65;13.43;;;10.00;99.90;;;;;;5091822;28;20111;-78
2021/09/09 01:10:30;;;;;;;19.58;13.10;;;9.90;99.90;;;;;;5094494;28;20024;-78
2021/09/09 01:12:56;;;;;;;20.65;14.55;;;9.90;99.90;;;;;;5094907;28;20063;-78
2021/09/09 01:15:22;;;;;;;20.48;14.25;;;9.80;99.90;;;;;;5085964;28;20489;-78
2021/09/09 01:17:48;;;;;;;20.35;14.73;;;9.80;99.90;;;;;;5094040;28;20027;-78
2021/09/09 01:20:14;;;;;;;22.52;15.60;;;9.70;99.90;;;;;;5092316;28;20390;-78
2021/09/09 01:22:43;;;;;;;24.52;15.25;;;9.70;99.90;;;;;;5098735;28;20024;-78
2021/09/09 01:25:10;;;;;;;23.42;14.43;;;9.70;99.90;;;;;;5093209;28;20485;-78
2021/09/09 01:27:36;;;;;;;22.85;14.65;;;9.70;99.90;;;;;;5087930;28;20524;-78
2021/09/09 01:30:02;;;;;;;18.50;13.57;;;9.70;99.90;;;;;;5089813;28;20118;-78
2021/09/09 01:32:28;;;;;;;18.08;12.77;;;9.60;99.90;;;;;;5095439;28;20497;-78
2021/09/09 01:34:53;;;;;;;20.88;13.32;;;9.60;99.90;;;;;;5092537;28;20027;-78
2021/09/09 01:37:19;;;;;;;21.65;14.38;;;9.60;99.90;;;;;;5094981;28;20028;-79
2021/09/09 01:39:47;;;;;;;21.23;14.20;;;9.60;99.90;;;;;;5090787;28;20035;-78
2021/09/09 01:42:13;;;;;;;23.23;14.07;;;9.60;99.90;;;;;;5091933;28;20016;-78
2021/09/09 01:44:38;;;;;;;24.80;14.13;;;9.50;99.90;;;;;;5094785;28;20036;-78
2021/09/09 01:47:04;;;;;;;22.70;14.10;;;9.50;99.90;;;;;;5093059;28;20539;-79
2021/09/09 01:49:30;;;;;;;18.73;12.77;;;9.50;99.90;;;;;;5085565;28;20495;-78
2021/09/09 01:51:56;;;;;;;23.17;13.90;;;9.50;99.90;;;;;;5093646;28;20032;-78
2021/09/09 01:54:23;;;;;;;21.67;13.60;;;9.50;99.90;;;;;;5086544;28;20040;-78
2021/09/09 01:56:48;;;;;;;20.95;15.10;;;9.40;99.90;;;;;;5093183;28;20020;-78
2021/09/09 01:59:14;;;;;;;21.00;13.55;;;9.40;99.90;;;;;;5091250;28;20553;-79
2021/09/09 02:01:40;;;;;;;19.35;13.82;;;9.40;99.90;;;;;;5094975;28;20020;-79
2021/09/09 02:04:05;;;;;;;18.42;12.48;;;9.40;99.90;;;;;;5083437;28;20041;-78
2021/09/09 02:06:32;;;;;;;21.88;13.75;;;9.40;99.90;;;;;;5088738;28;20032;-79
2021/09/09 02:08:59;;;;;;;22.55;13.98;;;9.40;99.90;;;;;;5089833;28;20020;-78
2021/09/09 02:11:25;;;;;;;18.92;12.85;;;9.30;99.90;;;;;;5093731;28;20032;-77
2021/09/09 02:13:51;;;;;;;18.00;13.68;;;9.30;99.90;;;;;;5087553;28;20040;-78
2021/09/09 02:16:16;;;;;;;21.02;14.02;;;9.30;99.90;;;;;;5093216;28;20069;-77
2021/09/09 02:18:42;;;;;;;20.58;14.13;;;9.30;99.90;;;;;;5089597;28;20455;-77
2021/09/09 02:21:08;;;;;;;18.67;12.50;;;9.20;99.90;;;;;;5094214;28;20032;-78
2021/09/09 02:23:33;;;;;;;17.35;11.85;;;9.20;99.90;;;;;;5089601;28;20029;-78
2021/09/09 02:25:59;;;;;;;17.35;11.38;;;9.20;99.90;;;;;;5087870;28;20042;-78
2021/09/09 02:28:24;;;;;;;16.30;11.52;;;9.20;99.90;;;;;;5083839;28;20028;-78
2021/09/09 02:30:50;;;;;;;19.60;12.93;;;9.10;99.90;;;;;;5086363;28;20028;-78
2021/09/09 02:33:16;;;;;;;16.95;11.80;;;9.10;99.90;;;;;;5090435;28;20042;-78
2021/09/09 02:35:42;;;;;;;17.52;11.63;;;9.10;99.90;;;;;;5085392;28;20363;-78
2021/09/09 02:38:08;;;;;;;16.15;10.65;;;9.10;99.90;;;;;;5076315;28;20085;-79
2021/09/09 02:40:33;;;;;;;17.73;11.35;;;9.00;99.90;;;;;;5095338;28;20032;-78
2021/09/09 02:42:59;;;;;;;15.63;11.63;;;9.00;99.90;;;;;;5097296;28;20397;-79
2021/09/09 02:45:25;;;;;;;19.77;12.45;;;9.00;99.90;;;;;;5091432;28;20031;-78
2021/09/09 02:47:51;;;;;;;17.77;12.45;;;8.90;99.90;;;;;;5092581;28;20020;-78
2021/09/09 02:50:16;;;;;;;22.13;11.90;;;8.90;99.90;;;;;;5090158;28;20046;-77
2021/09/09 02:52:42;;;;;;;18.48;11.45;;;8.90;99.90;;;;;;5096002;28;20067;-78
2021/09/09 02:55:09;;;;;;;15.60;10.65;;;8.90;99.90;;;;;;5089847;28;20028;-77
2021/09/09 02:57:36;;;;;;;19.38;12.45;;;8.80;99.90;;;;;;5093739;28;20103;-78
2021/09/09 03:00:05;;;;;;;19.52;12.27;;;8.80;99.90;;;;;;5092317;28;20041;-77
2021/09/09 03:02:30;;;;;;;18.60;12.75;;;8.80;99.90;;;;;;5088790;28;20047;-78
2021/09/09 03:04:56;;;;;;;20.35;13.25;;;8.80;99.90;;;;;;5081743;28;20482;-77
2021/09/09 03:07:22;;;;;;;17.77;12.48;;;8.80;99.90;;;;;;5103517;28;20026;-78
2021/09/09 03:09:47;;;;;;;18.38;12.20;;;8.80;99.90;;;;;;5087660;28;20038;-77
2021/09/09 03:12:13;;;;;;;22.63;12.63;;;8.80;99.90;;;;;;5092298;28;20436;-77
2021/09/09 03:14:39;;;;;;;21.98;12.43;;;8.80;99.90;;;;;;5080174;28;20020;-78
2021/09/09 03:17:05;;;;;;;21.92;12.20;;;8.70;99.90;;;;;;5093352;28;20025;-79
2021/09/09 03:19:31;;;;;;;20.55;12.07;;;8.70;99.90;;;;;;5087901;28;20027;-78
2021/09/09 03:21:56;;;;;;;20.75;11.35;;;8.70;99.90;;;;;;5091654;28;20027;-77
2021/09/09 03:24:22;;;;;;;19.15;11.77;;;8.70;99.90;;;;;;5080179;28;20500;-77
2021/09/09 03:26:49;;;;;;;16.00;11.85;;;8.60;99.90;;;;;;5103972;28;20031;-78
2021/09/09 03:29:15;;;;;;;21.92;13.35;;;8.60;99.90;;;;;;5099487;28;20028;-77
2021/09/09 03:31:41;;;;;;;20.80;12.68;;;8.60;99.90;;;;;;5091537;28;20416;-78
2021/09/09 03:34:06;;;;;;;22.08;13.65;;;8.50;99.90;;;;;;5091168;28;20089;-78
2021/09/09 03:36:32;;;;;;;19.25;12.60;;;8.50;99.90;;;;;;5093392;28;20020;-77
2021/09/09 03:38:58;;;;;;;16.50;12.13;;;8.60;99.90;;;;;;5097173;28;20465;-78
2021/09/09 03:41:23;;;;;;;20.60;12.30;;;8.50;99.90;;;;;;5091744;28;20028;-78
2021/09/09 03:43:49;;;;;;;16.15;10.98;;;8.60;99.90;;;;;;5091491;28;20023;-78
2021/09/09 03:46:14;;;;;;;17.10;11.45;;;8.50;99.90;;;;;;5090198;28;20016;-77
2021/09/09 03:48:40;;;;;;;17.67;11.10;;;8.50;99.90;;;;;;5089429;28;20027;-78
2021/09/09 03:51:06;;;;;;;18.42;12.60;;;8.40;99.90;;;;;;5089863;28;20102;-78
2021/09/09 03:53:31;;;;;;;17.48;11.98;;;8.50;99.90;;;;;;5089274;28;20097;-80
2021/09/09 03:55:57;;;;;;;17.17;11.40;;;8.40;99.90;;;;;;5086384;28;20028;-78
2021/09/09 03:58:22;;;;;;;18.45;11.70;;;8.40;99.90;;;;;;5096565;28;20024;-78
2021/09/09 04:00:49;;;;;;;17.88;11.95;;;8.40;99.90;;;;;;5099443;28;20028;-78
2021/09/09 04:03:14;;;;;;;26.67;12.52;;;8.40;99.90;;;;;;5098862;28;20035;-77
2021/09/09 04:05:40;;;;;;;17.77;11.98;;;8.30;99.90;;;;;;5095157;28;20466;-77
2021/09/09 04:08:07;;;;;;;16.23;11.85;;;8.30;99.90;;;;;;5095874;28;20024;-77
2021/09/09 04:10:33;;;;;;;19.35;11.73;;;8.30;99.90;;;;;;5096237;28;20030;-77
2021/09/09 04:12:59;;;;;;;20.95;13.13;;;8.30;99.90;;;;;;5093936;28;20082;-77
2021/09/09 04:15:25;;;;;;;18.48;12.77;;;8.40;99.90;;;;;;5089759;28;20659;-77
2021/09/09 04:17:50;;;;;;;19.77;11.60;;;8.30;99.90;;;;;;5082156;28;20091;-78
2021/09/09 04:20:16;;;;;;;21.88;11.65;;;8.30;99.90;;;;;;5086882;28;20032;-78
2021/09/09 04:22:42;;;;;;;19.05;12.65;;;8.30;99.90;;;;;;5100405;28;20505;-78
2021/09/09 04:25:08;;;;;;;17.65;12.60;;;8.30;99.90;;;;;;5095096;28;20485;-77
2021/09/09 04:27:34;;;;;;;19.92;12.43;;;8.30;99.90;;;;;;5095451;28;20035;-78
2021/09/09 04:30:00;;;;;;;15.98;11.43;;;8.30;99.90;;;;;;5092755;28;20028;-78
2021/09/09 04:32:25;;;;;;;16.80;11.02;;;8.30;99.90;;;;;;5106926;28;20427;-78
2021/09/09 04:34:51;;;;;;;20.25;12.23;;;8.30;99.90;;;;;;5100526;28;20028;-78
2021/09/09 04:37:18;;;;;;;17.25;10.88;;;8.30;99.90;;;;;;5095212;28;20145;-78
2021/09/09 04:39:44;;;;;;;19.70;11.73;;;8.30;99.90;;;;;;5095145;28;20488;-77
2021/09/09 04:42:10;;;;;;;19.70;10.75;;;8.40;99.90;;;;;;5096328;28;20073;-77
2021/09/09 04:44:36;;;;;;;18.90;10.85;;;8.40;99.90;;;;;;5093776;28;20024;-77
2021/09/09 04:47:01;;;;;;;17.63;10.88;;;8.40;99.90;;;;;;5096329;28;20028;-78
2021/09/09 04:49:27;;;;;;;19.33;11.15;;;8.40;99.90;;;;;;5094763;28;20126;-78
2021/09/09 04:51:53;;;;;;;20.58;10.70;;;8.40;99.90;;;;;;5101924;28;20070;-78
2021/09/09 04:54:19;;;;;;;19.70;10.60;;;8.50;99.90;;;;;;5113628;28;20032;-77
2021/09/09 04:56:45;;;;;;;21.08;11.05;;;8.50;99.90;;;;;;5094573;28;20062;-77
2021/09/09 04:59:11;;;;;;;26.23;12.15;;;8.60;99.90;;;;;;5089701;28;20024;-78
2021/09/09 05:01:36;;;;;;;20.80;10.27;;;8.70;99.90;;;;;;5093563;28;20012;-79
2021/09/09 05:04:02;;;;;;;15.65;10.05;;;8.70;99.90;;;;;;5090712;28;20031;-79
2021/09/09 05:06:27;;;;;;;20.25;10.75;;;8.80;99.90;;;;;;5094536;28;20027;-77
2021/09/09 05:08:53;;;;;;;18.70;10.25;;;8.90;99.90;;;;;;5095158;28;20389;-78
2021/09/09 05:11:19;;;;;;;18.30;10.05;;;9.00;99.90;;;;;;5094541;28;20038;-77
2021/09/09 05:13:44;;;;;;;16.17;10.80;;;9.10;99.90;;;;;;5095040;28;20064;-77
2021/09/09 05:16:10;;;;;;;19.17;11.32;;;9.20;99.90;;;;;;5094517;28;20043;-78
2021/09/09 05:18:36;;;;;;;18.30;12.13;;;9.30;99.90;;;;;;5096527;28;20033;-79
2021/09/09 05:21:02;;;;;;;18.65;10.85;;;9.50;99.90;;;;;;5094589;28;20067;-78
2021/09/09 05:23:28;;;;;;;20.77;11.88;;;9.60;99.90;;;;;;5094219;28;20048;-78
2021/09/09 05:25:53;;;;;;;24.38;12.10;;;9.70;99.90;;;;;;5093684;28;20024;-78
2021/09/09 05:28:20;;;;;;;16.73;9.90;;;9.90;99.90;;;;;;5093897;28;20063;-79
2021/09/09 05:30:45;;;;;;;18.27;11.32;;;10.00;99.90;;;;;;5092000;28;20474;-78
2021/09/09 05:33:12;;;;;;;17.35;10.80;;;10.20;99.90;;;;;;5095731;28;20039;-80
2021/09/09 05:35:40;;;;;;;18.70;12.25;;;10.40;99.90;;;;;;5096927;28;20027;-78
2021/09/09 05:38:06;;;;;;;17.08;11.40;;;10.60;99.90;;;;;;5093958;28;20024;-79
2021/09/09 05:40:32;;;;;;;16.73;10.43;;;10.80;99.90;;;;;;5094042;28;20039;-78
2021/09/09 05:42:57;;;;;;;15.05;10.05;;;10.90;99.90;;;;;;5093667;28;20481;-78
2021/09/09 05:45:23;;;;;;;11.05;8.85;;;11.10;99.90;;;;;;5092698;28;20054;-78
2021/09/09 05:47:49;;;;;;;16.10;9.15;;;11.20;99.90;;;;;;5093811;28;20024;-80
2021/09/09 05:50:17;;;;;;;16.83;11.77;;;11.40;99.90;;;;;;5093752;28;20031;-79
2021/09/09 05:52:43;;;;;;;19.40;11.00;;;11.60;99.90;;;;;;5093339;28;20040;-79
2021/09/09 05:55:08;;;;;;;16.35;11.00;;;11.80;99.90;;;;;;5088255;28;20028;-79
2021/09/09 05:57:34;;;;;;;17.90;10.95;;;12.00;99.90;;;;;;5070455;28;20079;-78
2021/09/09 06:00:00;;;;;;;16.13;11.35;;;12.20;99.90;;;;;;5073449;28;20020;-79
2021/09/09 06:02:27;;;;;;;16.33;11.27;;;12.40;99.90;;;;;;5087682;28;20040;-80
2021/09/09 06:04:55;;;;;;;17.25;10.50;;;12.60;99.90;;;;;;5077797;28;20300;-81
2021/09/09 06:07:21;;;;;;;16.90;10.65;;;12.70;99.90;;;;;;5091151;28;20405;-80
2021/09/09 06:09:47;;;;;;;13.52;9.93;;;12.90;99.90;;;;;;5088348;28;20016;-80
2021/09/09 06:12:13;;;;;;;19.40;10.05;;;13.10;99.90;;;;;;5089999;28;20554;-80
2021/09/09 06:14:38;;;;;;;18.55;11.43;;;13.30;99.90;;;;;;5090034;28;20027;-80
2021/09/09 06:17:05;;;;;;;16.58;10.95;;;13.60;99.90;;;;;;5091637;28;20036;-80
2021/09/09 06:19:31;;;;;;;24.10;11.95;;;13.80;99.90;;;;;;5090926;28;20031;-81
2021/09/09 06:21:57;;;;;;;21.17;10.57;;;14.00;99.90;;;;;;5090042;28;20448;-80
2021/09/09 06:24:23;;;;;;;17.05;11.68;;;14.20;99.90;;;;;;5091439;28;20024;-81
2021/09/09 06:26:49;;;;;;;18.05;11.55;;;14.50;99.90;;;;;;5088754;28;20153;-80
2021/09/09 06:29:14;;;;;;;26.15;11.55;;;14.70;99.90;;;;;;5089574;28;20077;-80
2021/09/09 06:31:40;;;;;;;22.25;12.10;;;14.90;99.90;;;;;;5092467;28;20111;-80
2021/09/09 06:34:06;;;;;;;18.80;12.00;;;15.20;99.90;;;;;;5102888;28;20131;-80
2021/09/09 06:36:31;;;;;;;18.80;11.10;;;15.50;99.90;;;;;;5092912;28;20095;-81
2021/09/09 06:38:57;;;;;;;16.05;11.20;;;15.70;99.90;;;;;;5092900;28;20027;-81
2021/09/09 06:41:22;;;;;;;33.10;25.35;;;16.00;99.90;;;;;;5091964;28;20077;-81
2021/09/09 06:43:48;;;;;;;13.93;11.00;;;16.30;99.90;;;;;;5086502;28;20040;-81
2021/09/09 06:46:14;;;;;;;16.75;10.80;;;16.50;99.90;;;;;;5091608;28;20016;-81
2021/09/09 06:48:39;;;;;;;15.70;9.02;;;16.70;99.90;;;;;;5093553;28;20031;-81
2021/09/09 06:51:05;;;;;;;11.57;9.55;;;16.90;99.90;;;;;;5102420;27;20156;-81
2021/09/09 06:53:31;;;;;;;14.82;8.85;;;17.10;99.90;;;;;;5072308;28;20033;-81
2021/09/09 06:55:56;;;;;;;13.60;8.15;;;17.30;99.90;;;;;;5096944;28;20016;-81
2021/09/09 06:58:22;;;;;;;10.20;7.88;;;17.50;99.90;;;;;;5088801;28;20043;-81
2021/09/09 07:00:50;;;;;;;13.15;7.68;;;17.60;99.90;;;;;;5090681;28;20032;-81
2021/09/09 07:03:16;;;;;;;11.65;7.25;;;17.70;97.40;;;;;;5096795;28;20047;-81
2021/09/09 07:05:41;;;;;;;9.52;6.72;;;17.90;98.30;;;;;;5086593;28;20020;-81
2021/09/09 07:08:07;;;;;;;11.18;7.68;;;18.10;92.20;;;;;;5090685;28;20393;-81
2021/09/09 07:10:33;;;;;;;6.93;5.63;;;18.10;85.00;;;;;;5089199;28;20525;-81
2021/09/09 07:12:58;;;;;;;8.40;6.55;;;18.30;81.90;;;;;;5092079;28;20074;-81
2021/09/09 07:15:24;;;;;;;10.45;7.22;;;18.40;85.20;;;;;;5092740;28;20020;-81
2021/09/09 07:17:50;;;;;;;10.35;6.97;;;18.60;85.20;;;;;;5091678;28;20046;-81
2021/09/09 07:20:16;;;;;;;8.65;7.20;;;18.80;86.40;;;;;;5098905;28;20040;-81
2021/09/09 07:22:41;;;;;;;13.35;7.18;;;18.90;82.20;;;;;;5072183;28;20462;-81
2021/09/09 07:25:09;;;;;;;14.45;6.75;;;19.10;80.80;;;;;;5080797;28;20036;-81
2021/09/09 07:27:35;;;;;;;10.00;6.82;;;19.20;78.60;;;;;;5093349;28;20481;-81
2021/09/09 07:30:01;;;;;;;12.20;6.75;;;19.30;76.50;;;;;;5082263;28;20393;-81
2021/09/09 07:32:26;;;;;;;7.75;6.03;;;19.50;77.40;;;;;;5092695;28;20028;-81
2021/09/09 07:34:52;;;;;;;8.63;6.10;;;19.50;73.30;;;;;;5091085;28;20016;-81
2021/09/09 07:37:18;;;;;;;10.65;7.22;;;19.50;74.30;;;;;;5093165;28;20023;-81
2021/09/09 07:39:43;;;;;;;9.30;6.57;;;19.60;72.00;;;;;;5090638;28;20028;-81
2021/09/09 07:42:09;;;;;;;10.25;6.90;;;19.70;70.80;;;;;;5091840;28;20073;-81
2021/09/09 07:44:35;;;;;;;9.93;6.90;;;19.90;73.40;;;;;;5095855;28;20133;-81
2021/09/09 07:47:01;;;;;;;10.30;6.15;;;19.90;71.80;;;;;;5071578;28;20099;-81
2021/09/09 07:49:28;;;;;;;12.48;6.85;;;20.10;71.30;;;;;;5102568;28;20103;-81
2021/09/09 07:51:53;;;;;;;10.43;7.53;;;20.20;69.80;;;;;;5093132;28;20024;-81
2021/09/09 07:54:20;;;;;;;8.00;6.43;;;20.40;69.90;;;;;;5090072;28;20374;-81
2021/09/09 07:56:47;;;;;;;8.35;6.22;;;20.40;69.00;;;;;;5091241;28;20024;-81
2021/09/09 07:59:14;;;;;;;11.27;5.78;;;20.40;65.60;;;;;;5090365;28;20052;-81
2021/09/09 08:01:40;;;;;;;13.02;6.30;;;20.50;67.00;;;;;;5092790;28;20024;-81
2021/09/09 08:04:06;;;;;;;10.25;6.72;;;20.70;68.10;;;;;;5086231;28;20407;-82
2021/09/09 08:06:32;;;;;;;10.43;6.85;;;20.80;66.80;;;;;;5084471;28;20025;-81
2021/09/09 08:08:57;;;;;;;7.15;5.53;;;20.80;62.70;;;;;;5084546;28;20027;-81
2021/09/09 08:11:23;;;;;;;10.80;6.80;;;20.90;66.60;;;;;;5100017;28;20069;-81
2021/09/09 08:13:52;;;;;;;11.13;6.63;;;21.00;64.70;;;;;;5079368;28;20152;-81
2021/09/09 08:16:20;;;;;;;11.13;6.43;;;21.20;67.70;;;;;;5090658;28;20111;-81
2021/09/09 08:18:46;;;;;;;10.93;6.35;;;21.30;63.20;;;;;;5092731;28;20024;-81
2021/09/09 08:21:11;;;;;;;6.68;5.25;;;21.30;62.50;;;;;;5091718;28;20043;-79
2021/09/09 08:23:37;;;;;;;7.82;5.65;;;21.30;57.60;;;;;;5092729;28;20024;-79
2021/09/09 08:26:03;;;;;;;10.80;6.40;;;21.40;58.20;;;;;;5085024;28;20060;-79
2021/09/09 08:28:29;;;;;;;9.45;6.22;;;21.50;58.80;;;;;;5098631;28;20024;-79
2021/09/09 08:30:54;;;;;;;8.30;5.38;;;21.50;56.80;;;;;;5092508;28;20027;-79
2021/09/09 08:33:20;;;;;;;8.48;5.18;;;21.50;56.20;;;;;;5092471;28;20036;-79
2021/09/09 08:35:46;;;;;;;9.82;5.47;;;21.60;57.60;;;;;;5107326;28;20062;-79
2021/09/09 08:38:11;;;;;;;7.80;5.40;;;21.70;57.00;;;;;;5108404;28;20069;-79
2021/09/09 08:40:39;;;;;;;11.52;5.25;;;21.80;56.40;;;;;;5083989;28;20107;-79
2021/09/09 08:43:05;;;;;;;7.35;5.38;;;21.90;54.30;;;;;;5092735;28;20119;-79
2021/09/09 08:45:30;;;;;;;9.60;5.60;;;22.00;54.60;;;;;;5090248;28;20020;-79
2021/09/09 08:48:01;;;;;;;14.60;6.15;;;22.10;55.70;;;;;;5091262;28;20082;-79
2021/09/09 08:50:26;;;;;;;12.20;6.28;;;22.20;53.90;;;;;;5091426;28;20435;-79
2021/09/09 08:52:54;;;;;;;10.20;5.88;;;22.30;52.20;;;;;;5095541;28;20031;-79
2021/09/09 08:55:20;;;;;;;7.35;5.35;;;22.30;50.40;;;;;;5097232;28;20030;-79
2021/09/09 08:57:45;;;;;;;8.93;5.63;;;22.40;52.00;;;;;;5110305;28;20416;-79
2021/09/09 09:00:12;;;;;;;10.35;4.85;;;22.40;51.30;;;;;;5084551;28;20028;-79
2021/09/09 09:02:49;;;;;;;8.63;5.70;;;22.40;51.20;;;;;;5096056;28;20075;-79
2021/09/09 09:05:15;;;;;;;9.27;5.57;;;22.50;51.20;;;;;;5101842;28;20100;-79
2021/09/09 09:07:40;;;;;;;7.97;5.18;;;22.50;50.80;;;;;;5089979;28;20110;-79
2021/09/09 09:10:08;;;;;;;11.63;5.32;;;22.50;51.90;;;;;;5110737;28;20032;-79
2021/09/09 09:12:42;;;;;;;10.88;5.63;;;22.60;50.60;;;;;;5111658;28;20433;-79
2021/09/09 09:15:13;;;;;;;9.27;4.88;;;22.70;49.60;;;;;;5082219;28;20037;-79
2021/09/09 09:18:02;;;;;;;7.72;5.75;;;22.60;48.80;;;;;;5095931;28;20534;-79
2021/09/09 09:20:36;;;;;;;8.65;5.70;;;22.70;50.20;;;;;;5093676;28;20020;-79
2021/09/09 09:23:14;;;;;;;8.60;5.32;;;22.70;50.80;;;;;;5094231;28;20032;-79
2021/09/09 09:25:54;;;;;;;8.70;5.22;;;22.70;50.00;;;;;;5110282;28;20068;-79
2021/09/09 09:28:48;;;;;;;9.25;5.47;;;22.70;49.00;;;;;;5106632;28;20032;-79
2021/09/09 09:31:22;;;;;;;5.78;4.50;;;22.80;49.30;;;;;;5091252;28;20102;-79
2021/09/09 09:33:54;;;;;;;8.63;5.38;;;22.80;47.20;;;;;;5094108;28;20024;-79
2021/09/09 09:36:22;;;;;;;7.75;5.10;;;22.90;50.60;;;;;;5094549;28;20095;-80
2021/09/09 09:38:49;;;;;;;8.13;5.43;;;23.00;48.50;;;;;;5092336;28;20027;-79
2021/09/09 09:41:18;;;;;;;7.68;5.75;;;23.10;50.10;;;;;;5094540;28;20137;-80
2021/09/09 09:44:00;;;;;;;8.75;5.13;;;23.20;49.50;;;;;;5102433;28;20020;-80
2021/09/09 09:46:28;;;;;;;6.55;4.70;;;23.10;47.70;;;;;;5105011;28;20373;-79
2021/09/09 09:48:54;;;;;;;7.97;5.30;;;23.10;49.10;;;;;;5092140;28;20017;-80
2021/09/09 09:51:41;;;;;;;8.15;5.10;;;23.10;49.30;;;;;;5091997;28;20050;-79
2021/09/09 09:54:12;;;;;;;5.80;4.80;;;23.20;49.50;;;;;;5074447;28;20152;-79
2021/09/09 09:56:39;;;;;;;6.27;5.33;;;23.20;49.20;;;;;;5092352;28;20017;-80
2021/09/09 09:59:06;;;;;;;6.75;4.90;;;23.20;49.30;;;;;;5083589;28;20024;-79
2021/09/09 10:01:33;;;;;;;6.65;4.85;;;23.30;49.60;;;;;;5092851;28;20058;-80
2021/09/09 10:04:07;;;;;;;7.00;4.85;;;23.40;49.40;;;;;;5098444;28;20052;-79
2021/09/09 10:06:34;;;;;;;6.10;5.13;;;23.40;48.30;;;;;;5073419;28;20099;-80
2021/09/09 10:09:04;;;;;;;7.82;5.13;;;23.40;46.10;;;;;;5113453;27;20492;-79
2021/09/09 10:11:30;;;;;;;5.35;4.85;;;23.30;46.80;;;;;;5093126;28;20020;-79
2021/09/09 10:13:57;;;;;;;5.97;4.55;;;23.40;48.50;;;;;;5091073;28;20404;-80
2021/09/09 10:16:26;;;;;;;5.55;4.78;;;23.40;48.60;;;;;;5109510;28;20363;-80
2021/09/09 10:18:52;;;;;;;6.22;5.63;;;23.50;49.80;;;;;;5087550;28;20012;-79
2021/09/09 10:21:48;;;;;;;7.63;5.38;;;23.60;50.40;;;;;;5092058;28;20375;-79
2021/09/09 10:24:16;;;;;;;7.05;5.05;;;23.60;48.00;;;;;;5091947;28;20550;-79
2021/09/09 10:26:42;;;;;;;6.05;5.45;;;23.70;49.10;;;;;;5096603;28;20105;-80
2021/09/09 10:30:06;;;;;;;6.40;4.97;;;23.70;50.30;;;;;;5091712;28;20485;-79
2021/09/09 10:32:37;;;;;;;6.95;5.07;;;23.80;49.00;;;;;;5050144;28;20060;-80
2021/09/09 10:35:14;;;;;;;6.30;5.07;;;23.80;48.60;;;;;;5033229;28;20032;-79
2021/09/09 10:37:41;;;;;;;5.25;4.68;;;23.90;49.40;;;;;;5062684;28;20115;-80
2021/09/09 10:40:28;;;;;;;5.32;4.65;;;23.90;49.90;;;;;;5105644;27;20072;-80
2021/09/09 10:42:55;;;;;;;5.40;4.90;;;24.00;48.10;;;;;;5072431;28;20119;-79
2021/09/09 10:45:34;;;;;;;7.95;5.40;;;24.00;47.20;;;;;;5091585;28;20030;-80
2021/09/09 10:48:04;;;;;;;7.07;5.00;;;23.90;45.70;;;;;;5095823;28;20397;-80
2021/09/09 10:50:30;;;;;;;6.10;5.18;;;23.90;45.50;;;;;;5093144;28;20484;-80
2021/09/09 10:53:12;;;;;;;7.57;5.28;;;23.90;46.20;;;;;;5090939;28;20036;-80
2021/09/09 10:55:42;;;;;;;7.10;5.10;;;23.90;47.50;;;;;;5084465;28;20511;-80
2021/09/09 10:58:20;;;;;;;4.90;4.28;;;23.90;47.10;;;;;;5092283;28;20020;-79
2021/09/09 11:00:57;;;;;;;8.35;5.10;;;23.90;47.00;;;;;;5102233;28;20033;-80
2021/09/09 11:03:41;;;;;;;10.13;4.97;;;24.00;47.00;;;;;;5073590;28;20060;-79
2021/09/09 11:06:11;;;;;;;5.78;5.20;;;24.00;44.40;;;;;;5088397;28;20538;-80
2021/09/09 11:08:38;;;;;;;7.40;5.00;;;23.90;46.10;;;;;;5090389;28;20093;-79
2021/09/09 11:11:06;;;;;;;11.30;6.38;;;23.90;45.60;;;;;;5108159;28;20023;-80
2021/09/09 11:13:33;;;;;;;10.50;6.10;;;23.80;46.20;;;;;;5101215;28;20032;-80
2021/09/09 11:15:59;;;;;;;7.43;5.97;;;23.90;46.40;;;;;;5086261;28;20085;-80
2021/09/09 11:18:30;;;;;;;8.65;5.20;;;23.80;46.00;;;;;;5092990;28;20027;-80
2021/09/09 11:21:07;;;;;;;9.07;5.40;;;23.90;45.20;;;;;;5086456;28;20016;-79
2021/09/09 11:23:35;;;;;;;6.30;4.60;;;23.90;46.00;;;;;;5093203;28;20058;-80
2021/09/09 11:26:12;;;;;;;9.93;5.65;;;23.90;45.90;;;;;;5108063;28;20031;-80
2021/09/09 11:28:38;;;;;;;15.73;5.70;;;24.00;46.60;;;;;;5105340;28;20111;-80
2021/09/09 11:31:13;;;;;;;7.82;5.43;;;24.10;46.30;;;;;;5088025;28;20539;-80
2021/09/09 11:33:53;;;;;;;8.35;4.90;;;24.20;45.20;;;;;;5092251;28;20066;-79
2021/09/09 11:36:21;;;;;;;5.38;4.55;;;24.30;44.00;;;;;;5091313;28;20058;-80
2021/09/09 11:38:48;;;;;;;5.25;4.40;;;24.30;42.80;;;;;;5105720;28;20049;-79
2021/09/09 11:41:16;;;;;;;6.57;4.60;;;24.20;40.90;;;;;;5091943;28;20031;-79
2021/09/09 11:43:55;;;;;;;6.72;4.45;;;24.30;43.90;;;;;;5086644;28;20583;-80
2021/09/09 11:46:51;;;;;;;6.80;4.45;;;24.40;43.30;;;;;;5099784;28;20027;-80
2021/09/09 11:49:19;;;;;;;12.23;5.00;;;24.50;44.40;;;;;;5086051;28;20042;-79
2021/09/09 11:51:47;;;;;;;7.53;5.20;;;24.30;41.80;;;;;;5091679;28;20031;-80
2021/09/09 11:54:19;;;;;;;7.45;4.57;;;24.20;40.90;;;;;;5084659;28;20047;-80
2021/09/09 11:56:45;;;;;;;7.88;4.65;;;24.20;41.80;;;;;;5096469;28;20036;-79
2021/09/09 11:59:17;;;;;;;5.05;4.50;;;24.20;40.10;;;;;;5071550;28;20386;-79
2021/09/09 12:01:51;;;;;;;13.10;5.45;;;24.30;42.00;;;;;;5092896;28;20027;-80
2021/09/09 12:04:20;;;;;;;5.07;4.55;;;24.30;42.20;;;;;;5092478;28;20031;-80
2021/09/09 12:06:47;;;;;;;5.88;4.70;;;24.20;41.00;;;;;;5092021;28;20031;-80
2021/09/09 12:09:23;;;;;;;5.75;3.97;;;24.20;41.00;;;;;;5090433;28;20027;-79
2021/09/09 12:12:01;;;;;;;5.07;4.47;;;24.20;40.60;;;;;;5090062;28;20028;-80
2021/09/09 12:14:27;;;;;;;6.03;4.53;;;24.10;41.10;;;;;;5089204;28;20079;-80
2021/09/09 12:17:05;;;;;;;4.93;4.30;;;24.10;41.50;;;;;;5089961;28;20055;-81
2021/09/09 12:19:30;;;;;;;6.80;4.13;;;24.20;42.70;;;;;;5090121;28;20032;-80
2021/09/09 12:21:56;;;;;;;5.03;4.45;;;24.20;44.20;;;;;;5091102;28;20446;-79
2021/09/09 12:24:32;;;;;;;6.22;4.43;;;24.30;44.90;;;;;;5113611;28;20173;-80
2021/09/09 12:27:04;;;;;;;5.70;4.10;;;24.40;43.00;;;;;;5109903;28;20020;-80
2021/09/09 12:29:42;;;;;;;5.45;3.78;;;24.50;42.80;;;;;;5077757;28;20024;-79
2021/09/09 12:32:30;;;;;;;7.55;4.63;;;24.50;44.30;;;;;;5096626;28;20103;-80
2021/09/09 12:35:16;;;;;;;5.97;4.53;;;24.40;41.80;;;;;;5096327;28;20040;-80
2021/09/09 12:37:42;;;;;;;6.97;5.05;;;24.40;42.80;;;;;;5097785;28;20031;-80
2021/09/09 12:40:08;;;;;;;6.75;4.55;;;24.40;44.50;;;;;;5094262;28;20024;-80